HBZHY VNLK-VNLK
Flight info
| Callsign | HBZHY |
|---|---|
| Flight time | 0h 56m |
| Altitude | 30000 |
| Route | MOUNT EVEREST |
| Aircraft | AS50/L-DGOV/C |
Departure
| Time | 2026-04-05 19:56 |
|---|---|
| Airport | Tenzing-Hillary Airport (VNLK) |
Arrival
| Time | 2026-04-05 20:53 |
|---|---|
| Airport | Tenzing-Hillary Airport (VNLK) |
| Time | Latitude | Longitude | Altitude | Speed | Heading |
|---|---|---|---|---|---|
| 2026-04-05 19:50 | 27.68777 | 86.73070 | 9434 ft | 0 kts | 59° |
| 2026-04-05 19:55 | 27.68764 | 86.73078 | 9495 ft | 8 kts | 344° |
| 2026-04-05 19:55 | 27.68757 | 86.72708 | 9473 ft | 83 kts | 279° |
| 2026-04-05 19:56 | 27.69158 | 86.72144 | 9544 ft | 101 kts | 321° |
| 2026-04-05 19:56 | 27.69732 | 86.71697 | 9832 ft | 98 kts | 327° |
| 2026-04-05 19:56 | 27.70194 | 86.71163 | 10125 ft | 94 kts | 304° |
| 2026-04-05 19:56 | 27.70540 | 86.70606 | 10427 ft | 80 kts | 319° |
| 2026-04-05 19:57 | 27.71076 | 86.70527 | 10617 ft | 91 kts | 21° |
| 2026-04-05 19:57 | 27.71519 | 86.71026 | 10812 ft | 89 kts | 46° |
| 2026-04-05 19:57 | 27.71988 | 86.71408 | 11110 ft | 83 kts | 16° |
| 2026-04-05 19:57 | 27.72541 | 86.71692 | 11279 ft | 89 kts | 40° |
| 2026-04-05 19:58 | 27.72779 | 86.72232 | 11858 ft | 65 kts | 70° |
| 2026-04-05 19:58 | 27.72959 | 86.72565 | 12299 ft | 67 kts | 11° |
| 2026-04-05 19:58 | 27.73586 | 86.72592 | 12302 ft | 104 kts | 2° |
| 2026-04-05 19:58 | 27.74310 | 86.72839 | 12420 ft | 110 kts | 24° |
| 2026-04-05 19:59 | 27.75038 | 86.73118 | 12716 ft | 119 kts | 17° |
| 2026-04-05 19:59 | 27.75782 | 86.73434 | 13096 ft | 111 kts | 26° |
| 2026-04-05 19:59 | 27.76399 | 86.73890 | 13449 ft | 98 kts | 20° |
| 2026-04-05 19:59 | 27.77088 | 86.74015 | 13737 ft | 104 kts | 5° |
| 2026-04-05 20:00 | 27.77772 | 86.74222 | 14170 ft | 100 kts | 24° |
| 2026-04-05 20:00 | 27.78369 | 86.74561 | 14637 ft | 93 kts | 26° |
| 2026-04-05 20:00 | 27.78944 | 86.74749 | 15139 ft | 80 kts | 13° |
| 2026-04-05 20:00 | 27.79405 | 86.74881 | 15698 ft | 61 kts | 35° |
| 2026-04-05 20:01 | 27.79665 | 86.75248 | 15940 ft | 89 kts | 73° |
| 2026-04-05 20:01 | 27.79684 | 86.75835 | 16389 ft | 69 kts | 83° |
| 2026-04-05 20:01 | 27.79749 | 86.76416 | 16758 ft | 73 kts | 75° |
| 2026-04-05 20:01 | 27.80144 | 86.76811 | 17017 ft | 105 kts | 5° |
| 2026-04-05 20:02 | 27.81085 | 86.76679 | 16459 ft | 162 kts | 16° |
| 2026-04-05 20:02 | 27.81932 | 86.77464 | 16547 ft | 160 kts | 59° |
| 2026-04-05 20:02 | 27.82387 | 86.78584 | 16910 ft | 156 kts | 66° |
| 2026-04-05 20:02 | 27.82697 | 86.79314 | 17096 ft | 154 kts | 61° |
| 2026-04-05 20:03 | 27.83074 | 86.80439 | 17302 ft | 147 kts | 65° |
| 2026-04-05 20:03 | 27.84576 | 86.82583 | 17960 ft | 151 kts | 45° |
| 2026-04-05 20:03 | 27.85208 | 86.83477 | 18433 ft | 137 kts | 51° |
| 2026-04-05 20:04 | 27.85579 | 86.84013 | 18881 ft | 123 kts | 47° |
| 2026-04-05 20:04 | 27.86088 | 86.84791 | 19450 ft | 116 kts | 55° |
| 2026-04-05 20:04 | 27.86584 | 86.85558 | 19882 ft | 133 kts | 50° |
| 2026-04-05 20:04 | 27.87073 | 86.86573 | 19850 ft | 156 kts | 60° |
| 2026-04-05 20:05 | 27.87522 | 86.87677 | 20018 ft | 154 kts | 64° |
| 2026-04-05 20:05 | 27.88000 | 86.88773 | 20257 ft | 155 kts | 58° |
| 2026-04-05 20:05 | 27.88487 | 86.89856 | 20566 ft | 155 kts | 62° |
| 2026-04-05 20:05 | 27.88909 | 86.90958 | 20950 ft | 154 kts | 67° |
| 2026-04-05 20:06 | 27.89174 | 86.92126 | 21190 ft | 152 kts | 76° |
| 2026-04-05 20:06 | 27.89185 | 86.93300 | 21411 ft | 146 kts | 106° |
| 2026-04-05 20:06 | 27.88929 | 86.94392 | 21750 ft | 143 kts | 113° |
| 2026-04-05 20:06 | 27.88700 | 86.95497 | 21929 ft | 144 kts | 107° |
| 2026-04-05 20:07 | 27.88903 | 86.96571 | 22266 ft | 147 kts | 55° |
| 2026-04-05 20:07 | 27.89708 | 86.96968 | 22500 ft | 127 kts | 324° |
| 2026-04-05 20:07 | 27.90429 | 86.96315 | 22431 ft | 142 kts | 299° |
| 2026-04-05 20:07 | 27.91196 | 86.95562 | 22739 ft | 140 kts | 308° |
| 2026-04-05 20:08 | 27.91970 | 86.94989 | 23071 ft | 133 kts | 308° |
| 2026-04-05 20:08 | 27.92688 | 86.94371 | 23257 ft | 122 kts | 302° |
| 2026-04-05 20:08 | 27.93336 | 86.93735 | 23428 ft | 125 kts | 301° |
| 2026-04-05 20:08 | 27.93916 | 86.93045 | 23774 ft | 114 kts | 292° |
| 2026-04-05 20:09 | 27.94465 | 86.92427 | 24085 ft | 110 kts | 297° |
| 2026-04-05 20:09 | 27.94995 | 86.91847 | 24380 ft | 96 kts | 289° |
| 2026-04-05 20:09 | 27.95311 | 86.91308 | 24823 ft | 79 kts | 287° |
| 2026-04-05 20:09 | 27.95605 | 86.90785 | 25043 ft | 81 kts | 281° |
| 2026-04-05 20:10 | 27.95933 | 86.90209 | 25135 ft | 85 kts | 282° |
| 2026-04-05 20:10 | 27.96171 | 86.89636 | 25394 ft | 68 kts | 275° |
| 2026-04-05 20:10 | 27.96384 | 86.89315 | 25873 ft | 49 kts | 294° |
| 2026-04-05 20:10 | 27.96530 | 86.89004 | 25752 ft | 57 kts | 264° |
| 2026-04-05 20:11 | 27.96802 | 86.88453 | 25759 ft | 115 kts | 311° |
| 2026-04-05 20:11 | 27.97563 | 86.88030 | 25854 ft | 128 kts | 313° |
| 2026-04-05 20:11 | 27.98378 | 86.87619 | 25882 ft | 132 kts | 316° |
| 2026-04-05 20:11 | 27.99340 | 86.87571 | 26061 ft | 159 kts | 4° |
| 2026-04-05 20:12 | 28.00226 | 86.88357 | 26504 ft | 167 kts | 40° |
| 2026-04-05 20:12 | 28.00571 | 86.89501 | 26988 ft | 137 kts | 92° |
| 2026-04-05 20:12 | 28.00498 | 86.90483 | 27300 ft | 118 kts | 117° |
| 2026-04-05 20:12 | 28.00418 | 86.91396 | 27560 ft | 114 kts | 114° |
| 2026-04-05 20:13 | 28.00342 | 86.92291 | 27829 ft | 108 kts | 130° |
| 2026-04-05 20:13 | 28.00037 | 86.92920 | 28202 ft | 77 kts | 173° |
| 2026-04-05 20:13 | 27.99640 | 86.93190 | 28618 ft | 60 kts | 205° |
| 2026-04-05 20:13 | 27.99293 | 86.93196 | 28614 ft | 32 kts | 238° |
| 2026-04-05 20:14 | 27.99213 | 86.93054 | 28588 ft | 19 kts | 231° |
| 2026-04-05 20:14 | 27.99271 | 86.92848 | 28263 ft | 75 kts | 299° |
| 2026-04-05 20:14 | 27.99959 | 86.92776 | 28424 ft | 115 kts | 341° |
| 2026-04-05 20:14 | 28.00748 | 86.92569 | 28273 ft | 118 kts | 304° |
| 2026-04-05 20:15 | 28.01197 | 86.91855 | 27850 ft | 114 kts | 272° |
| 2026-04-05 20:15 | 28.01103 | 86.91001 | 27560 ft | 111 kts | 248° |
| 2026-04-05 20:15 | 28.00688 | 86.90206 | 27022 ft | 122 kts | 243° |
| 2026-04-05 20:15 | 28.00322 | 86.89343 | 26605 ft | 118 kts | 250° |
| 2026-04-05 20:16 | 27.99989 | 86.88494 | 26186 ft | 124 kts | 247° |
| 2026-04-05 20:16 | 27.99455 | 86.87650 | 25877 ft | 140 kts | 228° |
| 2026-04-05 20:16 | 27.98537 | 86.87189 | 25480 ft | 153 kts | 205° |
| 2026-04-05 20:16 | 27.97374 | 86.87423 | 24773 ft | 193 kts | 162° |
| 2026-04-05 20:17 | 27.96395 | 86.88530 | 24654 ft | 218 kts | 131° |
| 2026-04-05 20:17 | 27.95635 | 86.90162 | 24054 ft | 251 kts | 121° |
| 2026-04-05 20:17 | 27.95062 | 86.91890 | 23960 ft | 228 kts | 119° |
| 2026-04-05 20:17 | 27.94384 | 86.93448 | 23770 ft | 209 kts | 136° |
| 2026-04-05 20:18 | 27.93517 | 86.94596 | 23849 ft | 181 kts | 153° |
| 2026-04-05 20:18 | 27.92577 | 86.95487 | 23555 ft | 171 kts | 160° |
| 2026-04-05 20:18 | 27.91595 | 86.96202 | 23261 ft | 164 kts | 167° |
| 2026-04-05 20:18 | 27.90588 | 86.96747 | 23065 ft | 157 kts | 171° |
| 2026-04-05 20:19 | 27.89583 | 86.97130 | 22440 ft | 152 kts | 190° |
| 2026-04-05 20:19 | 27.88835 | 86.96676 | 22437 ft | 112 kts | 250° |
| 2026-04-05 20:19 | 27.88751 | 86.95746 | 21821 ft | 133 kts | 269° |
| 2026-04-05 20:19 | 27.88789 | 86.94703 | 21372 ft | 130 kts | 272° |
| 2026-04-05 20:20 | 27.88915 | 86.93695 | 20948 ft | 133 kts | 274° |
| 2026-04-05 20:20 | 27.89063 | 86.92685 | 20682 ft | 126 kts | 281° |
| 2026-04-05 20:20 | 27.89124 | 86.91747 | 20384 ft | 113 kts | 257° |
| 2026-04-05 20:20 | 27.88899 | 86.90936 | 20248 ft | 102 kts | 256° |
| 2026-04-05 20:21 | 27.88651 | 86.90182 | 20114 ft | 107 kts | 243° |
| 2026-04-05 20:21 | 27.88224 | 86.89464 | 19949 ft | 110 kts | 244° |
| 2026-04-05 20:21 | 27.87909 | 86.88704 | 19895 ft | 104 kts | 248° |
| 2026-04-05 20:21 | 27.87655 | 86.87974 | 19875 ft | 95 kts | 255° |
| 2026-04-05 20:22 | 27.87402 | 86.87312 | 19817 ft | 89 kts | 245° |
| 2026-04-05 20:22 | 27.87049 | 86.86721 | 19652 ft | 94 kts | 246° |
| 2026-04-05 20:22 | 27.86833 | 86.86065 | 19531 ft | 85 kts | 252° |
| 2026-04-05 20:22 | 27.86632 | 86.85490 | 19425 ft | 71 kts | 246° |
| 2026-04-05 20:23 | 27.86275 | 86.85095 | 19392 ft | 80 kts | 228° |
| 2026-04-05 20:23 | 27.85906 | 86.84582 | 19379 ft | 93 kts | 239° |
| 2026-04-05 20:23 | 27.85556 | 86.83907 | 19224 ft | 109 kts | 241° |
| 2026-04-05 20:23 | 27.85138 | 86.83115 | 19005 ft | 118 kts | 228° |
| 2026-04-05 20:24 | 27.84517 | 86.82509 | 18797 ft | 123 kts | 229° |
| 2026-04-05 20:24 | 27.83981 | 86.81761 | 18529 ft | 126 kts | 230° |
| 2026-04-05 20:24 | 27.83414 | 86.80979 | 18410 ft | 129 kts | 237° |
| 2026-04-05 20:24 | 27.82852 | 86.80134 | 18110 ft | 140 kts | 234° |
| 2026-04-05 20:25 | 27.82372 | 86.79178 | 17751 ft | 144 kts | 251° |
| 2026-04-05 20:25 | 27.82162 | 86.78012 | 17157 ft | 161 kts | 269° |
| 2026-04-05 20:25 | 27.81728 | 86.76846 | 16406 ft | 162 kts | 207° |
| 2026-04-05 20:25 | 27.80766 | 86.76689 | 16525 ft | 124 kts | 187° |
| 2026-04-05 20:26 | 27.80053 | 86.76252 | 16317 ft | 123 kts | 249° |
| 2026-04-05 20:26 | 27.79889 | 86.75249 | 15844 ft | 133 kts | 248° |
| 2026-04-05 20:26 | 27.79214 | 86.74795 | 15482 ft | 129 kts | 169° |
| 2026-04-05 20:26 | 27.78269 | 86.74773 | 15107 ft | 138 kts | 198° |
| 2026-04-05 20:27 | 27.77461 | 86.74137 | 14876 ft | 144 kts | 216° |
| 2026-04-05 20:27 | 27.76965 | 86.73251 | 14638 ft | 141 kts | 276° |
| 2026-04-05 20:27 | 27.77526 | 86.72427 | 14468 ft | 133 kts | 325° |
| 2026-04-05 20:27 | 27.78371 | 86.71945 | 14168 ft | 142 kts | 340° |
| 2026-04-05 20:28 | 27.79233 | 86.71411 | 13954 ft | 142 kts | 322° |
| 2026-04-05 20:28 | 27.79959 | 86.70685 | 13896 ft | 134 kts | 325° |
| 2026-04-05 20:28 | 27.80769 | 86.70193 | 13853 ft | 130 kts | 324° |
| 2026-04-05 20:28 | 27.81513 | 86.69506 | 13492 ft | 140 kts | 324° |
| 2026-04-05 20:29 | 27.82317 | 86.68957 | 13427 ft | 117 kts | 316° |
| 2026-04-05 20:29 | 27.82726 | 86.68210 | 13491 ft | 114 kts | 296° |
| 2026-04-05 20:29 | 27.82940 | 86.67325 | 13312 ft | 122 kts | 266° |
| 2026-04-05 20:29 | 27.83017 | 86.66395 | 13243 ft | 111 kts | 245° |
| 2026-04-05 20:30 | 27.82344 | 86.66391 | 12742 ft | 127 kts | 130° |
| 2026-04-05 20:30 | 27.81839 | 86.67266 | 12417 ft | 134 kts | 122° |
| 2026-04-05 20:30 | 27.81714 | 86.67482 | 12363 ft | 132 kts | 126° |
| 2026-04-05 20:43 | 27.81178 | 86.68118 | 12350 ft | 109 kts | 136° |
| 2026-04-05 20:43 | 27.80822 | 86.68794 | 12310 ft | 96 kts | 118° |
| 2026-04-05 20:44 | 27.80478 | 86.69409 | 12228 ft | 88 kts | 128° |
| 2026-04-05 20:44 | 27.80176 | 86.69980 | 12101 ft | 84 kts | 118° |
| 2026-04-05 20:44 | 27.79831 | 86.70507 | 12027 ft | 75 kts | 122° |
| 2026-04-05 20:44 | 27.79617 | 86.70996 | 11900 ft | 68 kts | 135° |
| 2026-04-05 20:45 | 27.79190 | 86.71270 | 11773 ft | 72 kts | 164° |
| 2026-04-05 20:45 | 27.78823 | 86.71617 | 11678 ft | 68 kts | 163° |
| 2026-04-05 20:45 | 27.78340 | 86.71693 | 11588 ft | 77 kts | 178° |
| 2026-04-05 20:45 | 27.77803 | 86.71718 | 11545 ft | 83 kts | 190° |
| 2026-04-05 20:46 | 27.77184 | 86.71577 | 11375 ft | 97 kts | 192° |
| 2026-04-05 20:46 | 27.76507 | 86.71351 | 11199 ft | 101 kts | 197° |
| 2026-04-05 20:46 | 27.75873 | 86.71119 | 11274 ft | 93 kts | 200° |
| 2026-04-05 20:46 | 27.75257 | 86.70910 | 11226 ft | 95 kts | 199° |
| 2026-04-05 20:47 | 27.74641 | 86.70680 | 11121 ft | 93 kts | 199° |
| 2026-04-05 20:47 | 27.74027 | 86.70379 | 11045 ft | 96 kts | 200° |
| 2026-04-05 20:47 | 27.73371 | 86.70280 | 11013 ft | 97 kts | 191° |
| 2026-04-05 20:47 | 27.72696 | 86.70237 | 10876 ft | 94 kts | 181° |
| 2026-04-05 20:48 | 27.72114 | 86.70514 | 10736 ft | 94 kts | 156° |
| 2026-04-05 20:48 | 27.71575 | 86.70863 | 10680 ft | 88 kts | 155° |
| 2026-04-05 20:48 | 27.71051 | 86.71238 | 10554 ft | 91 kts | 149° |
| 2026-04-05 20:48 | 27.70556 | 86.71677 | 10454 ft | 89 kts | 146° |
| 2026-04-05 20:49 | 27.70051 | 86.72090 | 10383 ft | 89 kts | 146° |
| 2026-04-05 20:49 | 27.69572 | 86.72526 | 10360 ft | 89 kts | 144° |
| 2026-04-05 20:49 | 27.69248 | 86.72810 | 10297 ft | 88 kts | 149° |
| 2026-04-05 20:49 | 27.68801 | 86.73199 | 10369 ft | 73 kts | 146° |
| 2026-04-05 20:50 | 27.68390 | 86.73520 | 10383 ft | 69 kts | 158° |
| 2026-04-05 20:50 | 27.67808 | 86.73764 | 10461 ft | 64 kts | 185° |
| 2026-04-05 20:50 | 27.67465 | 86.73450 | 10403 ft | 70 kts | 245° |
| 2026-04-05 20:50 | 27.67284 | 86.73122 | 10345 ft | 78 kts | 242° |
| 2026-04-05 20:51 | 27.66955 | 86.72581 | 10264 ft | 84 kts | 248° |
| 2026-04-05 20:51 | 27.66667 | 86.71982 | 10153 ft | 89 kts | 248° |
| 2026-04-05 20:51 | 27.66698 | 86.71382 | 10087 ft | 79 kts | 320° |
| 2026-04-05 20:51 | 27.67114 | 86.71034 | 10057 ft | 71 kts | 327° |
| 2026-04-05 20:52 | 27.67624 | 86.70954 | 9795 ft | 91 kts | 37° |
| 2026-04-05 20:52 | 27.67966 | 86.71501 | 9534 ft | 78 kts | 64° |
| 2026-04-05 20:52 | 27.68173 | 86.72025 | 9349 ft | 70 kts | 60° |
| 2026-04-05 20:52 | 27.68404 | 86.72434 | 9242 ft | 50 kts | 63° |
| 2026-04-05 20:53 | 27.68542 | 86.72686 | 9237 ft | 26 kts | 62° |
| 2026-04-05 20:53 | 27.68626 | 86.72834 | 9301 ft | 25 kts | 69° |
| 2026-04-05 20:53 | 27.68712 | 86.73000 | 9397 ft | 16 kts | 61° |
| 2026-04-05 20:53 | 27.68764 | 86.73063 | 9437 ft | 8 kts | 45° |
| 2026-04-05 20:54 | 27.68774 | 86.73068 | 9426 ft | 0 kts | 66° |